createdAt,value
2022-12-25T00:02:08.172Z,48.36
2022-12-25T00:07:09.834Z,47.01
2022-12-25T00:12:11.555Z,49.48
2022-12-25T00:17:13.433Z,47.88
2022-12-25T00:22:15.154Z,46.99
2022-12-25T00:27:17.256Z,45.54
2022-12-25T00:32:18.938Z,46.20
2022-12-25T00:37:20.707Z,45.34
2022-12-25T00:42:23.871Z,46.16
2022-12-25T00:47:25.663Z,45.65
2022-12-25T00:52:27.375Z,46.85
2022-12-25T00:57:29.112Z,46.55
2022-12-25T01:02:30.974Z,45.17
2022-12-25T01:07:33.005Z,45.67
2022-12-25T01:12:37.549Z,43.28
2022-12-25T01:17:39.507Z,42.86
2022-12-25T01:22:42.019Z,43.58
2022-12-25T01:27:43.726Z,43.43
2022-12-25T01:32:45.558Z,48.30
2022-12-25T01:37:47.194Z,46.06
2022-12-25T01:42:48.956Z,49.59
2022-12-25T01:47:50.958Z,50.14
2022-12-25T01:52:54.068Z,49.62
2022-12-25T01:57:56.343Z,46.47
2022-12-25T02:02:59.215Z,44.25
2022-12-25T02:08:12.735Z,43.79
2022-12-25T02:13:18.475Z,45.42
2022-12-25T02:18:50.413Z,46.93
2022-12-25T02:24:06.570Z,45.92
2022-12-25T02:30:00.797Z,49.36
2022-12-25T02:35:28.478Z,49.51
2022-12-25T02:40:57.938Z,46.66
2022-12-25T02:46:22.615Z,45.91
2022-12-25T02:51:46.348Z,45.58
2022-12-25T02:57:09.075Z,46.34
2022-12-25T03:02:30.477Z,44.26
2022-12-25T03:07:34.612Z,44.35
2022-12-25T03:12:51.781Z,43.34
2022-12-25T03:17:55.633Z,45.17
2022-12-25T03:23:16.211Z,44.64
2022-12-25T03:28:17.974Z,45.40
2022-12-25T03:34:11.467Z,44.08
2022-12-25T03:39:51.372Z,43.89
2022-12-25T03:45:26.729Z,44.42
2022-12-25T03:51:12.969Z,43.78
2022-12-25T03:56:37.075Z,44.71
2022-12-25T04:01:57.498Z,44.36
2022-12-25T04:07:18.082Z,45.15
2022-12-25T04:12:38.255Z,47.49
2022-12-25T04:17:58.428Z,47.55
2022-12-25T04:23:18.643Z,45.74
2022-12-25T04:28:38.873Z,45.13
2022-12-25T04:33:59.885Z,45.10
2022-12-25T04:39:01.696Z,44.79
2022-12-25T04:44:03.496Z,44.61
2022-12-25T04:49:05.209Z,42.97
2022-12-25T04:54:06.850Z,44.78
2022-12-25T04:59:08.585Z,46.01
2022-12-25T05:04:10.317Z,45.91
2022-12-25T05:09:12.197Z,46.44
2022-12-25T05:14:13.870Z,47.51
2022-12-25T05:19:15.627Z,47.89
2022-12-25T05:24:17.242Z,47.08
2022-12-25T05:29:19.024Z,47.83
2022-12-25T05:34:20.827Z,47.62
2022-12-25T05:39:22.757Z,47.69
2022-12-25T05:44:24.498Z,47.28
2022-12-25T05:49:26.187Z,47.95
2022-12-25T05:54:27.972Z,46.22
2022-12-25T05:59:31.617Z,45.65
2022-12-25T06:04:33.305Z,45.78
2022-12-25T06:09:35.023Z,43.83
2022-12-25T06:14:37.029Z,43.41
2022-12-25T06:19:38.771Z,45.33
2022-12-25T06:24:40.847Z,45.66
2022-12-25T06:29:42.675Z,48.54
2022-12-25T06:34:44.557Z,46.39
2022-12-25T06:39:47.774Z,44.71
2022-12-25T06:44:51.137Z,44.05
2022-12-25T06:49:52.793Z,43.71
2022-12-25T06:54:54.525Z,46.06
2022-12-25T06:59:56.188Z,45.07
2022-12-25T07:04:58.777Z,46.91
2022-12-25T07:10:00.401Z,44.62
2022-12-25T07:15:02.142Z,44.96
2022-12-25T07:20:04.155Z,45.20
2022-12-25T07:25:06.784Z,46.18
2022-12-25T07:30:09.126Z,46.02
2022-12-25T07:35:10.849Z,47.66
2022-12-25T07:40:12.921Z,49.10
2022-12-25T07:45:14.829Z,48.70
2022-12-25T07:50:17.017Z,46.06
2022-12-25T07:55:18.843Z,45.48
2022-12-25T08:00:20.790Z,45.43
2022-12-25T08:05:22.491Z,42.81
2022-12-25T08:10:24.238Z,43.33
2022-12-25T08:15:26.032Z,42.22
2022-12-25T08:20:27.750Z,44.10
2022-12-25T08:25:29.669Z,43.68
2022-12-25T08:30:31.569Z,45.97
2022-12-25T08:35:34.221Z,47.62
2022-12-25T08:40:35.968Z,44.71
2022-12-25T08:45:37.640Z,43.80
2022-12-25T08:50:39.353Z,42.80
2022-12-25T08:55:41.275Z,43.03
2022-12-25T09:00:43.137Z,43.45
2022-12-25T09:05:44.882Z,42.54
2022-12-25T09:10:46.583Z,47.55
2022-12-25T09:15:48.333Z,46.67
2022-12-25T09:21:04.789Z,43.38
2022-12-25T09:26:08.702Z,43.54
2022-12-25T09:31:10.511Z,42.47
2022-12-25T09:36:12.369Z,41.28
2022-12-25T09:41:38.425Z,44.16
2022-12-25T09:46:53.191Z,44.29
2022-12-25T09:52:01.636Z,45.92
2022-12-25T09:57:04.023Z,46.53
2022-12-25T10:02:21.161Z,43.57
2022-12-25T10:07:51.626Z,45.49
2022-12-25T10:13:05.424Z,46.98
2022-12-25T10:18:25.528Z,46.68
2022-12-25T10:23:35.495Z,45.93
2022-12-25T10:28:51.277Z,46.93
2022-12-25T10:33:54.257Z,44.60
2022-12-25T10:38:57.271Z,46.28
2022-12-25T10:43:59.197Z,45.54
2022-12-25T10:49:02.967Z,47.09
2022-12-25T10:54:26.274Z,46.54
2022-12-25T10:59:31.159Z,47.47
2022-12-25T11:06:24.509Z,57.67
2022-12-25T11:11:28.048Z,56.61
2022-12-25T11:16:40.280Z,57.24
2022-12-25T11:21:51.879Z,56.49
2022-12-25T11:27:04.634Z,56.09
2022-12-25T11:32:21.103Z,56.44
2022-12-25T11:37:44.421Z,56.74
2022-12-25T11:42:51.671Z,54.97
2022-12-25T11:48:02.356Z,54.51
2022-12-25T11:53:25.191Z,54.18
2022-12-25T11:58:32.566Z,53.52
2022-12-25T12:03:41.502Z,53.22
2022-12-25T12:08:44.076Z,53.91
2022-12-25T12:14:18.623Z,51.23
2022-12-25T12:19:29.298Z,53.33
2022-12-25T12:24:39.350Z,51.37
2022-12-25T12:29:44.314Z,50.70
2022-12-25T12:34:50.564Z,50.00
2022-12-25T12:39:54.526Z,52.06
2022-12-25T12:44:58.395Z,51.33
2022-12-25T12:50:01.490Z,51.52
2022-12-25T12:55:07.395Z,50.90
2022-12-25T13:00:18.890Z,51.93
2022-12-25T13:05:32.234Z,52.13
2022-12-25T13:10:41.406Z,52.41
2022-12-25T13:15:47.616Z,52.23
2022-12-25T13:20:56.631Z,51.83
2022-12-25T13:26:01.172Z,53.17
2022-12-25T13:31:05.379Z,51.53
2022-12-25T13:36:12.591Z,51.64
2022-12-25T13:41:41.753Z,50.72
2022-12-25T13:46:43.601Z,51.45
2022-12-25T13:51:45.793Z,55.50
2022-12-25T13:56:56.558Z,53.56
2022-12-25T14:01:59.939Z,54.25
2022-12-25T14:07:10.709Z,54.02
2022-12-25T14:12:18.939Z,55.03
2022-12-25T14:17:22.377Z,53.61
2022-12-25T14:22:25.230Z,51.75
2022-12-25T14:27:30.483Z,51.43
2022-12-25T14:32:40.822Z,48.25
2022-12-25T14:37:42.604Z,47.73
2022-12-25T14:42:54.689Z,49.09
2022-12-25T14:47:59.273Z,47.16
2022-12-25T14:53:01.231Z,48.77
2022-12-25T14:58:05.749Z,47.78
2022-12-25T15:03:21.357Z,47.65
2022-12-25T15:08:25.094Z,48.49
2022-12-25T15:13:27.888Z,46.68
2022-12-25T15:18:38.341Z,46.62
2022-12-25T15:23:39.984Z,47.96
2022-12-25T15:28:42.172Z,47.74
2022-12-25T15:33:44.352Z,48.22
2022-12-25T15:38:46.162Z,48.54
2022-12-25T15:43:47.849Z,49.63
2022-12-25T15:48:49.404Z,49.42
2022-12-25T15:53:51.120Z,49.32
2022-12-25T15:58:52.780Z,47.67
2022-12-25T16:03:54.475Z,48.42
2022-12-25T16:08:56.131Z,47.89
2022-12-25T16:13:57.857Z,47.86
2022-12-25T16:18:59.564Z,47.83
2022-12-25T16:24:01.143Z,48.04
2022-12-25T16:29:07.307Z,51.52
2022-12-25T16:34:10.064Z,53.45
2022-12-25T16:39:12.022Z,54.16
2022-12-25T16:44:14.774Z,50.70
2022-12-25T16:49:16.429Z,50.33
2022-12-25T16:54:18.177Z,50.09
2022-12-25T16:59:19.809Z,51.04
2022-12-25T17:04:21.518Z,51.89
2022-12-25T17:09:23.488Z,52.96
2022-12-25T17:14:25.359Z,54.98
2022-12-25T17:19:27.514Z,55.00
2022-12-25T17:24:29.924Z,54.38
2022-12-25T17:29:32.030Z,50.71
2022-12-25T17:34:33.790Z,53.12
2022-12-25T17:39:35.386Z,53.63
2022-12-25T17:44:37.003Z,52.98
2022-12-25T17:49:38.581Z,54.36
2022-12-25T17:54:40.816Z,53.14
2022-12-25T17:59:42.444Z,51.22
2022-12-25T18:04:44.173Z,52.50
2022-12-25T18:09:45.842Z,52.06
2022-12-25T18:14:47.448Z,50.75
2022-12-25T18:19:50.754Z,53.09
2022-12-25T18:24:52.683Z,52.40
2022-12-25T18:29:54.278Z,52.27
2022-12-25T18:34:55.987Z,51.30
2022-12-25T18:39:57.602Z,53.32
2022-12-25T18:44:59.407Z,52.47
2022-12-25T18:50:01.213Z,50.79
2022-12-25T18:55:02.900Z,50.20
2022-12-25T19:00:05.031Z,51.47
2022-12-25T19:05:07.057Z,51.54
2022-12-25T19:10:10.318Z,51.15
2022-12-25T19:15:12.215Z,51.49
2022-12-25T19:20:13.831Z,49.58
2022-12-25T19:25:15.557Z,49.93
2022-12-25T19:30:18.289Z,51.29
2022-12-25T19:35:19.865Z,50.81
2022-12-25T19:40:22.635Z,50.57
2022-12-25T19:45:24.489Z,51.72
2022-12-25T19:50:28.567Z,51.70
2022-12-25T19:55:32.114Z,51.07
2022-12-25T20:00:33.838Z,50.32
2022-12-25T20:05:35.715Z,51.62
2022-12-25T20:10:43.144Z,51.08
2022-12-25T20:15:44.806Z,51.71
2022-12-25T20:20:46.420Z,49.58
2022-12-25T20:25:48.002Z,49.52
2022-12-25T20:30:49.667Z,49.93
2022-12-25T20:35:51.712Z,50.05
2022-12-25T20:41:27.773Z,49.54
2022-12-25T20:46:30.637Z,49.78
2022-12-25T20:51:32.369Z,49.55
2022-12-25T20:56:34.625Z,48.44
2022-12-25T21:01:36.332Z,47.79
2022-12-25T21:06:38.013Z,47.20
2022-12-25T21:11:39.611Z,49.61
2022-12-25T21:16:41.432Z,48.79
2022-12-25T21:21:43.755Z,49.34
2022-12-25T21:26:48.189Z,49.15
2022-12-25T21:32:08.707Z,48.89
2022-12-25T21:37:10.264Z,48.78
2022-12-25T21:42:11.870Z,48.19
2022-12-25T21:47:13.559Z,48.16
2022-12-25T21:52:15.227Z,49.18
2022-12-25T21:57:16.922Z,48.05
2022-12-25T22:02:18.793Z,48.73
2022-12-25T22:07:20.714Z,48.69
2022-12-25T22:12:40.789Z,48.56
2022-12-25T22:18:02.093Z,48.22
2022-12-25T22:23:04.404Z,48.55
2022-12-25T22:28:06.063Z,48.26
2022-12-25T22:33:07.777Z,49.58
2022-12-25T22:38:09.340Z,49.02
2022-12-25T22:43:10.980Z,49.00
2022-12-25T22:48:12.575Z,48.95
2022-12-25T22:53:14.157Z,48.03
2022-12-25T22:58:16.153Z,48.97
2022-12-25T23:03:17.888Z,49.62
2022-12-25T23:08:19.632Z,50.07
2022-12-25T23:13:39.761Z,50.44
2022-12-25T23:19:00.019Z,49.99
2022-12-25T23:24:20.706Z,49.39
2022-12-25T23:29:37.720Z,48.87
2022-12-25T23:34:41.640Z,49.78
2022-12-25T23:39:43.568Z,48.19
2022-12-25T23:44:45.193Z,49.68
2022-12-25T23:49:46.913Z,49.56
2022-12-25T23:54:48.542Z,47.99
2022-12-25T23:59:50.173Z,50.01
